sensor_id;sensor_type;location;lat;lon;timestamp;P1;durP1;ratioP1;P2;durP2;ratioP2
7383;SDS011;3733;47.994;8.820;2023-03-23T00:01:24;7.00;;;3.83;;
7383;SDS011;3733;47.994;8.820;2023-03-23T00:03:52;8.13;;;4.63;;
7383;SDS011;3733;47.994;8.820;2023-03-23T00:06:21;7.87;;;4.67;;
7383;SDS011;3733;47.994;8.820;2023-03-23T00:08:49;8.30;;;4.63;;
7383;SDS011;3733;47.994;8.820;2023-03-23T00:11:21;6.90;;;4.40;;
7383;SDS011;3733;47.994;8.820;2023-03-23T00:13:50;7.60;;;4.83;;
7383;SDS011;3733;47.994;8.820;2023-03-23T00:16:21;8.77;;;4.53;;
7383;SDS011;3733;47.994;8.820;2023-03-23T00:18:57;8.40;;;5.47;;
7383;SDS011;3733;47.994;8.820;2023-03-23T00:21:27;9.23;;;5.40;;
7383;SDS011;3733;47.994;8.820;2023-03-23T00:24:04;7.00;;;4.53;;
7383;SDS011;3733;47.994;8.820;2023-03-23T00:26:32;11.17;;;6.13;;
7383;SDS011;3733;47.994;8.820;2023-03-23T00:28:59;8.50;;;5.80;;
7383;SDS011;3733;47.994;8.820;2023-03-23T00:31:26;8.80;;;5.50;;
7383;SDS011;3733;47.994;8.820;2023-03-23T00:33:56;11.60;;;5.90;;
7383;SDS011;3733;47.994;8.820;2023-03-23T00:36:23;21.20;;;6.00;;
7383;SDS011;3733;47.994;8.820;2023-03-23T00:38:49;9.17;;;6.23;;
7383;SDS011;3733;47.994;8.820;2023-03-23T00:41:15;14.23;;;7.27;;
7383;SDS011;3733;47.994;8.820;2023-03-23T00:43:40;10.60;;;5.77;;
7383;SDS011;3733;47.994;8.820;2023-03-23T00:46:06;9.83;;;5.90;;
7383;SDS011;3733;47.994;8.820;2023-03-23T00:48:37;9.50;;;5.97;;
7383;SDS011;3733;47.994;8.820;2023-03-23T00:51:09;12.50;;;5.67;;
7383;SDS011;3733;47.994;8.820;2023-03-23T00:53:35;10.10;;;5.43;;
7383;SDS011;3733;47.994;8.820;2023-03-23T00:56:01;8.10;;;5.60;;
7383;SDS011;3733;47.994;8.820;2023-03-23T00:58:26;7.60;;;5.13;;
7383;SDS011;3733;47.994;8.820;2023-03-23T01:00:52;13.30;;;5.27;;
7383;SDS011;3733;47.994;8.820;2023-03-23T01:03:17;7.97;;;5.00;;
7383;SDS011;3733;47.994;8.820;2023-03-23T01:05:43;8.00;;;5.10;;
7383;SDS011;3733;47.994;8.820;2023-03-23T01:08:12;8.90;;;5.30;;
7383;SDS011;3733;47.994;8.820;2023-03-23T01:10:39;8.97;;;5.60;;
7383;SDS011;3733;47.994;8.820;2023-03-23T01:13:05;9.87;;;5.20;;
7383;SDS011;3733;47.994;8.820;2023-03-23T01:15:32;10.90;;;5.67;;
7383;SDS011;3733;47.994;8.820;2023-03-23T01:17:58;6.73;;;5.47;;
7383;SDS011;3733;47.994;8.820;2023-03-23T01:20:24;8.27;;;5.50;;
7383;SDS011;3733;47.994;8.820;2023-03-23T01:22:51;7.80;;;5.20;;
7383;SDS011;3733;47.994;8.820;2023-03-23T01:25:18;8.67;;;5.47;;
7383;SDS011;3733;47.994;8.820;2023-03-23T01:27:44;7.10;;;5.60;;
7383;SDS011;3733;47.994;8.820;2023-03-23T01:30:10;7.73;;;5.03;;
7383;SDS011;3733;47.994;8.820;2023-03-23T01:32:37;7.70;;;5.57;;
7383;SDS011;3733;47.994;8.820;2023-03-23T01:35:03;8.80;;;5.60;;
7383;SDS011;3733;47.994;8.820;2023-03-23T01:37:29;11.00;;;4.87;;
7383;SDS011;3733;47.994;8.820;2023-03-23T01:39:55;10.53;;;5.30;;
7383;SDS011;3733;47.994;8.820;2023-03-23T01:42:23;9.00;;;4.90;;
7383;SDS011;3733;47.994;8.820;2023-03-23T01:47:15;7.80;;;5.30;;
7383;SDS011;3733;47.994;8.820;2023-03-23T01:49:44;8.60;;;5.70;;
7383;SDS011;3733;47.994;8.820;2023-03-23T01:52:16;8.17;;;5.70;;
7383;SDS011;3733;47.994;8.820;2023-03-23T01:54:50;17.57;;;6.17;;
7383;SDS011;3733;47.994;8.820;2023-03-23T01:57:18;12.17;;;5.97;;
7383;SDS011;3733;47.994;8.820;2023-03-23T01:59:49;12.70;;;6.57;;
7383;SDS011;3733;47.994;8.820;2023-03-23T02:02:17;17.93;;;5.97;;
7383;SDS011;3733;47.994;8.820;2023-03-23T02:04:45;9.60;;;6.47;;
7383;SDS011;3733;47.994;8.820;2023-03-23T02:07:12;8.53;;;6.17;;
7383;SDS011;3733;47.994;8.820;2023-03-23T02:09:40;9.40;;;5.80;;
7383;SDS011;3733;47.994;8.820;2023-03-23T02:12:06;9.60;;;5.80;;
7383;SDS011;3733;47.994;8.820;2023-03-23T02:14:31;15.60;;;6.00;;
7383;SDS011;3733;47.994;8.820;2023-03-23T02:39:17;10.03;;;5.97;;
7383;SDS011;3733;47.994;8.820;2023-03-23T02:41:54;8.67;;;6.03;;
7383;SDS011;3733;47.994;8.820;2023-03-23T02:44:27;10.23;;;6.30;;
7383;SDS011;3733;47.994;8.820;2023-03-23T02:46:55;8.20;;;5.80;;
7383;SDS011;3733;47.994;8.820;2023-03-23T02:49:24;10.43;;;6.43;;
7383;SDS011;3733;47.994;8.820;2023-03-23T02:51:52;8.80;;;5.37;;
7383;SDS011;3733;47.994;8.820;2023-03-23T02:54:21;7.83;;;5.97;;
7383;SDS011;3733;47.994;8.820;2023-03-23T02:56:50;11.27;;;6.10;;
7383;SDS011;3733;47.994;8.820;2023-03-23T02:59:17;9.50;;;5.70;;
7383;SDS011;3733;47.994;8.820;2023-03-23T03:04:16;11.23;;;5.50;;
7383;SDS011;3733;47.994;8.820;2023-03-23T03:07:01;12.10;;;5.83;;
7383;SDS011;3733;47.994;8.820;2023-03-23T03:17:51;8.87;;;5.73;;
7383;SDS011;3733;47.994;8.820;2023-03-23T03:20:23;6.97;;;5.33;;
7383;SDS011;3733;47.994;8.820;2023-03-23T03:22:51;13.80;;;5.77;;
7383;SDS011;3733;47.994;8.820;2023-03-23T03:25:18;7.80;;;5.80;;
7383;SDS011;3733;47.994;8.820;2023-03-23T03:27:45;11.10;;;6.30;;
7383;SDS011;3733;47.994;8.820;2023-03-23T03:30:14;7.03;;;5.73;;
7383;SDS011;3733;47.994;8.820;2023-03-23T03:32:46;9.70;;;6.07;;
7383;SDS011;3733;47.994;8.820;2023-03-23T03:35:16;7.00;;;5.27;;
7383;SDS011;3733;47.994;8.820;2023-03-23T03:37:42;6.87;;;5.23;;
7383;SDS011;3733;47.994;8.820;2023-03-23T03:40:13;11.23;;;6.00;;
7383;SDS011;3733;47.994;8.820;2023-03-23T03:42:41;9.10;;;5.90;;
7383;SDS011;3733;47.994;8.820;2023-03-23T03:45:10;12.63;;;5.60;;
7383;SDS011;3733;47.994;8.820;2023-03-23T03:47:38;9.30;;;6.10;;
7383;SDS011;3733;47.994;8.820;2023-03-23T03:50:03;7.90;;;5.60;;
7383;SDS011;3733;47.994;8.820;2023-03-23T03:52:30;11.20;;;5.77;;
7383;SDS011;3733;47.994;8.820;2023-03-23T03:54:56;11.23;;;5.97;;
7383;SDS011;3733;47.994;8.820;2023-03-23T03:57:22;8.07;;;5.37;;
7383;SDS011;3733;47.994;8.820;2023-03-23T03:59:48;9.40;;;5.43;;
7383;SDS011;3733;47.994;8.820;2023-03-23T04:02:15;8.73;;;5.50;;
7383;SDS011;3733;47.994;8.820;2023-03-23T04:04:45;11.67;;;5.30;;
7383;SDS011;3733;47.994;8.820;2023-03-23T04:07:11;13.90;;;6.10;;
7383;SDS011;3733;47.994;8.820;2023-03-23T04:09:38;10.60;;;5.47;;
7383;SDS011;3733;47.994;8.820;2023-03-23T04:12:04;6.63;;;5.00;;
7383;SDS011;3733;47.994;8.820;2023-03-23T04:14:30;7.97;;;5.23;;
7383;SDS011;3733;47.994;8.820;2023-03-23T04:16:56;9.17;;;5.30;;
7383;SDS011;3733;47.994;8.820;2023-03-23T04:19:25;9.20;;;5.20;;
7383;SDS011;3733;47.994;8.820;2023-03-23T04:21:53;9.37;;;5.00;;
7383;SDS011;3733;47.994;8.820;2023-03-23T04:24:20;9.10;;;5.73;;
7383;SDS011;3733;47.994;8.820;2023-03-23T04:26:46;10.13;;;5.50;;
7383;SDS011;3733;47.994;8.820;2023-03-23T04:29:12;7.97;;;4.90;;
7383;SDS011;3733;47.994;8.820;2023-03-23T04:31:38;7.17;;;4.57;;
7383;SDS011;3733;47.994;8.820;2023-03-23T04:34:05;10.07;;;4.70;;
7383;SDS011;3733;47.994;8.820;2023-03-23T04:36:31;10.37;;;5.00;;
7383;SDS011;3733;47.994;8.820;2023-03-23T04:38:59;7.73;;;5.67;;
7383;SDS011;3733;47.994;8.820;2023-03-23T04:41:25;12.43;;;4.90;;
7383;SDS011;3733;47.994;8.820;2023-03-23T04:43:51;7.70;;;4.83;;
7383;SDS011;3733;47.994;8.820;2023-03-23T04:46:21;8.43;;;5.33;;
7383;SDS011;3733;47.994;8.820;2023-03-23T04:48:47;8.10;;;4.80;;
7383;SDS011;3733;47.994;8.820;2023-03-23T04:51:13;14.77;;;5.10;;
7383;SDS011;3733;47.994;8.820;2023-03-23T04:53:39;11.70;;;5.27;;
7383;SDS011;3733;47.994;8.820;2023-03-23T04:56:06;6.67;;;5.27;;
7383;SDS011;3733;47.994;8.820;2023-03-23T04:58:31;16.30;;;5.20;;
7383;SDS011;3733;47.994;8.820;2023-03-23T05:00:59;9.30;;;5.40;;
7383;SDS011;3733;47.994;8.820;2023-03-23T05:03:25;6.53;;;5.17;;
7383;SDS011;3733;47.994;8.820;2023-03-23T05:05:53;7.70;;;5.07;;
7383;SDS011;3733;47.994;8.820;2023-03-23T05:08:20;7.93;;;4.80;;
7383;SDS011;3733;47.994;8.820;2023-03-23T05:10:53;8.17;;;4.63;;
7383;SDS011;3733;47.994;8.820;2023-03-23T05:13:23;8.90;;;5.77;;
7383;SDS011;3733;47.994;8.820;2023-03-23T05:15:48;7.43;;;5.10;;
7383;SDS011;3733;47.994;8.820;2023-03-23T05:18:15;8.07;;;5.40;;
7383;SDS011;3733;47.994;8.820;2023-03-23T05:20:41;12.57;;;5.10;;
7383;SDS011;3733;47.994;8.820;2023-03-23T05:23:10;20.07;;;6.60;;
7383;SDS011;3733;47.994;8.820;2023-03-23T05:25:36;13.40;;;7.70;;
7383;SDS011;3733;47.994;8.820;2023-03-23T05:28:11;12.23;;;6.20;;
7383;SDS011;3733;47.994;8.820;2023-03-23T05:30:38;11.90;;;6.83;;
7383;SDS011;3733;47.994;8.820;2023-03-23T05:33:04;15.73;;;8.40;;
7383;SDS011;3733;47.994;8.820;2023-03-23T05:35:30;11.20;;;7.30;;
7383;SDS011;3733;47.994;8.820;2023-03-23T05:37:56;11.97;;;6.87;;
7383;SDS011;3733;47.994;8.820;2023-03-23T05:40:22;9.67;;;5.97;;
7383;SDS011;3733;47.994;8.820;2023-03-23T05:42:50;12.70;;;6.00;;
7383;SDS011;3733;47.994;8.820;2023-03-23T05:45:17;15.70;;;7.90;;
7383;SDS011;3733;47.994;8.820;2023-03-23T05:47:43;15.80;;;7.47;;
7383;SDS011;3733;47.994;8.820;2023-03-23T05:50:09;10.70;;;5.47;;
7383;SDS011;3733;47.994;8.820;2023-03-23T05:52:35;11.00;;;5.60;;
7383;SDS011;3733;47.994;8.820;2023-03-23T05:55:01;9.50;;;5.87;;
7383;SDS011;3733;47.994;8.820;2023-03-23T05:57:28;8.83;;;5.47;;
7383;SDS011;3733;47.994;8.820;2023-03-23T05:59:55;10.13;;;6.03;;
7383;SDS011;3733;47.994;8.820;2023-03-23T06:02:22;13.10;;;5.43;;
7383;SDS011;3733;47.994;8.820;2023-03-23T06:04:49;8.63;;;5.63;;
7383;SDS011;3733;47.994;8.820;2023-03-23T06:07:15;12.37;;;5.10;;
7383;SDS011;3733;47.994;8.820;2023-03-23T06:09:41;8.63;;;5.43;;
7383;SDS011;3733;47.994;8.820;2023-03-23T06:12:07;13.17;;;7.03;;
7383;SDS011;3733;47.994;8.820;2023-03-23T06:14:34;13.30;;;6.50;;
7383;SDS011;3733;47.994;8.820;2023-03-23T06:17:01;10.30;;;7.23;;
7383;SDS011;3733;47.994;8.820;2023-03-23T06:19:27;8.47;;;5.97;;
7383;SDS011;3733;47.994;8.820;2023-03-23T06:21:55;10.97;;;7.40;;
7383;SDS011;3733;47.994;8.820;2023-03-23T06:24:21;10.13;;;6.47;;
7383;SDS011;3733;47.994;8.820;2023-03-23T06:26:47;9.17;;;5.70;;
7383;SDS011;3733;47.994;8.820;2023-03-23T06:29:14;11.33;;;5.27;;
7383;SDS011;3733;47.994;8.820;2023-03-23T06:31:40;8.37;;;6.13;;
7383;SDS011;3733;47.994;8.820;2023-03-23T06:34:09;13.60;;;6.60;;
7383;SDS011;3733;47.994;8.820;2023-03-23T06:36:36;20.53;;;9.23;;
7383;SDS011;3733;47.994;8.820;2023-03-23T06:39:03;22.00;;;12.00;;
7383;SDS011;3733;47.994;8.820;2023-03-23T06:41:31;17.60;;;10.40;;
7383;SDS011;3733;47.994;8.820;2023-03-23T06:43:57;16.47;;;9.47;;
7383;SDS011;3733;47.994;8.820;2023-03-23T06:46:23;16.20;;;10.57;;
7383;SDS011;3733;47.994;8.820;2023-03-23T06:48:49;18.40;;;7.37;;
7383;SDS011;3733;47.994;8.820;2023-03-23T06:51:15;14.43;;;6.80;;
7383;SDS011;3733;47.994;8.820;2023-03-23T06:53:42;13.23;;;5.67;;
7383;SDS011;3733;47.994;8.820;2023-03-23T06:56:08;9.53;;;7.40;;
7383;SDS011;3733;47.994;8.820;2023-03-23T06:58:34;10.13;;;6.83;;
7383;SDS011;3733;47.994;8.820;2023-03-23T07:01:00;9.20;;;6.30;;
7383;SDS011;3733;47.994;8.820;2023-03-23T07:03:26;10.43;;;6.30;;
7383;SDS011;3733;47.994;8.820;2023-03-23T07:05:52;13.90;;;6.80;;
7383;SDS011;3733;47.994;8.820;2023-03-23T07:08:19;15.00;;;7.07;;
7383;SDS011;3733;47.994;8.820;2023-03-23T07:10:45;14.47;;;6.57;;
7383;SDS011;3733;47.994;8.820;2023-03-23T07:13:11;9.50;;;6.37;;
7383;SDS011;3733;47.994;8.820;2023-03-23T07:15:37;14.33;;;6.93;;
7383;SDS011;3733;47.994;8.820;2023-03-23T07:18:04;17.47;;;6.43;;
7383;SDS011;3733;47.994;8.820;2023-03-23T07:20:30;17.10;;;6.40;;
7383;SDS011;3733;47.994;8.820;2023-03-23T07:22:55;15.27;;;6.10;;
7383;SDS011;3733;47.994;8.820;2023-03-23T07:25:21;21.07;;;6.60;;
7383;SDS011;3733;47.994;8.820;2023-03-23T07:27:47;9.63;;;6.17;;
7383;SDS011;3733;47.994;8.820;2023-03-23T07:30:13;22.40;;;6.13;;
7383;SDS011;3733;47.994;8.820;2023-03-23T07:32:39;13.40;;;6.03;;
7383;SDS011;3733;47.994;8.820;2023-03-23T07:35:05;8.60;;;5.47;;
7383;SDS011;3733;47.994;8.820;2023-03-23T07:37:32;13.57;;;5.20;;
7383;SDS011;3733;47.994;8.820;2023-03-23T07:39:57;8.20;;;4.77;;
7383;SDS011;3733;47.994;8.820;2023-03-23T07:42:23;10.97;;;5.27;;
7383;SDS011;3733;47.994;8.820;2023-03-23T07:44:49;7.77;;;5.00;;
7383;SDS011;3733;47.994;8.820;2023-03-23T07:47:15;9.30;;;4.70;;
7383;SDS011;3733;47.994;8.820;2023-03-23T07:49:42;9.93;;;5.03;;
7383;SDS011;3733;47.994;8.820;2023-03-23T07:52:08;12.43;;;5.90;;
7383;SDS011;3733;47.994;8.820;2023-03-23T07:54:36;11.80;;;6.27;;
7383;SDS011;3733;47.994;8.820;2023-03-23T07:57:02;11.00;;;6.13;;
7383;SDS011;3733;47.994;8.820;2023-03-23T07:59:28;26.03;;;6.50;;
7383;SDS011;3733;47.994;8.820;2023-03-23T08:01:53;15.13;;;6.30;;
7383;SDS011;3733;47.994;8.820;2023-03-23T08:04:19;8.73;;;5.50;;
7383;SDS011;3733;47.994;8.820;2023-03-23T08:06:44;22.60;;;6.50;;
7383;SDS011;3733;47.994;8.820;2023-03-23T08:09:10;9.77;;;5.77;;
7383;SDS011;3733;47.994;8.820;2023-03-23T08:11:37;6.07;;;4.60;;
7383;SDS011;3733;47.994;8.820;2023-03-23T08:14:03;7.70;;;4.50;;
7383;SDS011;3733;47.994;8.820;2023-03-23T08:16:30;5.90;;;3.47;;
7383;SDS011;3733;47.994;8.820;2023-03-23T08:18:56;6.07;;;3.67;;
7383;SDS011;3733;47.994;8.820;2023-03-23T08:21:23;7.63;;;2.97;;
7383;SDS011;3733;47.994;8.820;2023-03-23T08:23:48;8.60;;;3.83;;
7383;SDS011;3733;47.994;8.820;2023-03-23T08:26:14;5.07;;;2.73;;
7383;SDS011;3733;47.994;8.820;2023-03-23T08:28:40;4.97;;;2.73;;
7383;SDS011;3733;47.994;8.820;2023-03-23T08:31:09;9.10;;;2.50;;
7383;SDS011;3733;47.994;8.820;2023-03-23T08:33:36;5.00;;;2.67;;
7383;SDS011;3733;47.994;8.820;2023-03-23T08:36:03;9.83;;;2.70;;
7383;SDS011;3733;47.994;8.820;2023-03-23T08:38:29;5.10;;;3.37;;
7383;SDS011;3733;47.994;8.820;2023-03-23T08:40:59;13.37;;;2.40;;
7383;SDS011;3733;47.994;8.820;2023-03-23T08:43:26;4.73;;;2.60;;
7383;SDS011;3733;47.994;8.820;2023-03-23T08:45:52;4.47;;;2.00;;
7383;SDS011;3733;47.994;8.820;2023-03-23T08:48:18;3.43;;;2.47;;
7383;SDS011;3733;47.994;8.820;2023-03-23T08:50:45;3.10;;;2.30;;
7383;SDS011;3733;47.994;8.820;2023-03-23T08:53:10;3.60;;;2.40;;
7383;SDS011;3733;47.994;8.820;2023-03-23T08:55:37;2.90;;;2.00;;
7383;SDS011;3733;47.994;8.820;2023-03-23T08:58:03;4.30;;;2.60;;
7383;SDS011;3733;47.994;8.820;2023-03-23T09:00:29;2.90;;;2.30;;
7383;SDS011;3733;47.994;8.820;2023-03-23T09:02:55;2.13;;;1.90;;
7383;SDS011;3733;47.994;8.820;2023-03-23T09:05:23;4.50;;;2.30;;
7383;SDS011;3733;47.994;8.820;2023-03-23T09:07:51;3.20;;;1.80;;
7383;SDS011;3733;47.994;8.820;2023-03-23T09:10:17;2.60;;;1.80;;
7383;SDS011;3733;47.994;8.820;2023-03-23T09:12:44;3.97;;;2.20;;
7383;SDS011;3733;47.994;8.820;2023-03-23T09:15:14;5.40;;;2.03;;
7383;SDS011;3733;47.994;8.820;2023-03-23T09:17:45;2.13;;;1.90;;
7383;SDS011;3733;47.994;8.820;2023-03-23T09:20:12;2.20;;;1.90;;
7383;SDS011;3733;47.994;8.820;2023-03-23T09:22:40;4.07;;;2.07;;
7383;SDS011;3733;47.994;8.820;2023-03-23T09:25:11;1.90;;;1.80;;
7383;SDS011;3733;47.994;8.820;2023-03-23T09:27:39;3.00;;;1.83;;
7383;SDS011;3733;47.994;8.820;2023-03-23T09:30:07;3.37;;;2.07;;
7383;SDS011;3733;47.994;8.820;2023-03-23T09:32:37;2.30;;;2.10;;
7383;SDS011;3733;47.994;8.820;2023-03-23T09:35:04;1.97;;;1.87;;
7383;SDS011;3733;47.994;8.820;2023-03-23T09:37:36;2.20;;;2.00;;
7383;SDS011;3733;47.994;8.820;2023-03-23T09:40:03;2.23;;;2.03;;
7383;SDS011;3733;47.994;8.820;2023-03-23T09:48:14;3.07;;;2.03;;
7383;SDS011;3733;47.994;8.820;2023-03-23T09:51:07;1.63;;;1.43;;
7383;SDS011;3733;47.994;8.820;2023-03-23T09:53:42;2.00;;;1.90;;
7383;SDS011;3733;47.994;8.820;2023-03-23T09:56:12;3.80;;;2.33;;
7383;SDS011;3733;47.994;8.820;2023-03-23T10:01:37;2.57;;;1.70;;
7383;SDS011;3733;47.994;8.820;2023-03-23T10:04:13;4.17;;;2.03;;
7383;SDS011;3733;47.994;8.820;2023-03-23T10:09:56;2.77;;;2.30;;
7383;SDS011;3733;47.994;8.820;2023-03-23T10:12:27;2.83;;;2.00;;
7383;SDS011;3733;47.994;8.820;2023-03-23T10:15:12;4.60;;;2.03;;
7383;SDS011;3733;47.994;8.820;2023-03-23T10:20:42;2.60;;;1.70;;
7383;SDS011;3733;47.994;8.820;2023-03-23T10:25:47;2.80;;;1.90;;
7383;SDS011;3733;47.994;8.820;2023-03-23T10:28:21;6.50;;;2.10;;
7383;SDS011;3733;47.994;8.820;2023-03-23T10:30:59;4.47;;;1.63;;
7383;SDS011;3733;47.994;8.820;2023-03-23T10:33:30;3.40;;;1.73;;
7383;SDS011;3733;47.994;8.820;2023-03-23T10:36:24;3.23;;;2.00;;
7383;SDS011;3733;47.994;8.820;2023-03-23T10:41:37;2.73;;;2.30;;
7383;SDS011;3733;47.994;8.820;2023-03-23T10:44:36;2.03;;;1.80;;
7383;SDS011;3733;47.994;8.820;2023-03-23T10:47:02;3.03;;;1.83;;
7383;SDS011;3733;47.994;8.820;2023-03-23T10:49:32;4.93;;;2.40;;
7383;SDS011;3733;47.994;8.820;2023-03-23T10:55:08;2.30;;;2.00;;
7383;SDS011;3733;47.994;8.820;2023-03-23T10:57:34;6.00;;;3.47;;
7383;SDS011;3733;47.994;8.820;2023-03-23T11:02:38;3.77;;;2.43;;
7383;SDS011;3733;47.994;8.820;2023-03-23T11:05:13;6.00;;;2.13;;
7383;SDS011;3733;47.994;8.820;2023-03-23T11:07:47;6.63;;;3.20;;
7383;SDS011;3733;47.994;8.820;2023-03-23T11:10:25;3.20;;;2.47;;
7383;SDS011;3733;47.994;8.820;2023-03-23T11:12:56;5.30;;;2.30;;
7383;SDS011;3733;47.994;8.820;2023-03-23T11:15:27;4.20;;;2.20;;
7383;SDS011;3733;47.994;8.820;2023-03-23T11:18:04;2.40;;;2.20;;
7383;SDS011;3733;47.994;8.820;2023-03-23T11:20:43;2.77;;;2.00;;
7383;SDS011;3733;47.994;8.820;2023-03-23T11:23:20;2.97;;;1.80;;
7383;SDS011;3733;47.994;8.820;2023-03-23T11:25:52;3.30;;;2.10;;
7383;SDS011;3733;47.994;8.820;2023-03-23T11:28:18;2.10;;;1.80;;
7383;SDS011;3733;47.994;8.820;2023-03-23T11:30:44;4.40;;;2.23;;
7383;SDS011;3733;47.994;8.820;2023-03-23T11:33:10;2.80;;;2.20;;
7383;SDS011;3733;47.994;8.820;2023-03-23T11:35:42;3.73;;;2.10;;
7383;SDS011;3733;47.994;8.820;2023-03-23T11:38:11;3.20;;;2.13;;
7383;SDS011;3733;47.994;8.820;2023-03-23T11:40:44;2.97;;;2.37;;
7383;SDS011;3733;47.994;8.820;2023-03-23T11:43:17;2.83;;;2.27;;
7383;SDS011;3733;47.994;8.820;2023-03-23T11:51:16;3.70;;;2.37;;
7383;SDS011;3733;47.994;8.820;2023-03-23T11:53:55;3.20;;;2.37;;
7383;SDS011;3733;47.994;8.820;2023-03-23T11:56:41;3.67;;;2.30;;
7383;SDS011;3733;47.994;8.820;2023-03-23T11:59:10;3.93;;;2.20;;
7383;SDS011;3733;47.994;8.820;2023-03-23T12:04:50;2.23;;;2.00;;
7383;SDS011;3733;47.994;8.820;2023-03-23T12:07:45;2.40;;;2.20;;
7383;SDS011;3733;47.994;8.820;2023-03-23T12:21:25;3.53;;;2.30;;
7383;SDS011;3733;47.994;8.820;2023-03-23T12:30:16;5.63;;;2.03;;
7383;SDS011;3733;47.994;8.820;2023-03-23T12:35:50;3.23;;;2.20;;
7383;SDS011;3733;47.994;8.820;2023-03-23T12:43:55;5.00;;;2.80;;
7383;SDS011;3733;47.994;8.820;2023-03-23T12:52:06;4.50;;;2.90;;
7383;SDS011;3733;47.994;8.820;2023-03-23T12:55:17;2.43;;;2.23;;
7383;SDS011;3733;47.994;8.820;2023-03-23T12:58:09;2.77;;;2.20;;
7383;SDS011;3733;47.994;8.820;2023-03-23T13:03:20;6.10;;;2.50;;
7383;SDS011;3733;47.994;8.820;2023-03-23T13:06:18;3.57;;;2.27;;
7383;SDS011;3733;47.994;8.820;2023-03-23T13:08:48;3.00;;;2.50;;
7383;SDS011;3733;47.994;8.820;2023-03-23T13:11:20;4.70;;;2.93;;
7383;SDS011;3733;47.994;8.820;2023-03-23T13:22:49;3.77;;;2.33;;
7383;SDS011;3733;47.994;8.820;2023-03-23T13:28:48;3.33;;;2.37;;
7383;SDS011;3733;47.994;8.820;2023-03-23T13:31:32;3.00;;;2.60;;
7383;SDS011;3733;47.994;8.820;2023-03-23T13:36:55;9.40;;;2.60;;
7383;SDS011;3733;47.994;8.820;2023-03-23T13:50:00;3.50;;;2.70;;
7383;SDS011;3733;47.994;8.820;2023-03-23T13:57:57;4.37;;;3.03;;
7383;SDS011;3733;47.994;8.820;2023-03-23T14:02:58;7.60;;;3.90;;
7383;SDS011;3733;47.994;8.820;2023-03-23T14:13:16;3.70;;;2.70;;
7383;SDS011;3733;47.994;8.820;2023-03-23T14:15:56;2.93;;;2.13;;
7383;SDS011;3733;47.994;8.820;2023-03-23T14:18:31;5.33;;;2.73;;
7383;SDS011;3733;47.994;8.820;2023-03-23T14:21:01;3.20;;;2.50;;
7383;SDS011;3733;47.994;8.820;2023-03-23T14:23:30;7.07;;;2.70;;
7383;SDS011;3733;47.994;8.820;2023-03-23T14:26:00;3.40;;;2.93;;
7383;SDS011;3733;47.994;8.820;2023-03-23T14:28:35;3.60;;;2.53;;
7383;SDS011;3733;47.994;8.820;2023-03-23T14:31:09;4.37;;;2.73;;
7383;SDS011;3733;47.994;8.820;2023-03-23T14:33:51;5.30;;;2.60;;
7383;SDS011;3733;47.994;8.820;2023-03-23T14:36:20;2.83;;;2.60;;
7383;SDS011;3733;47.994;8.820;2023-03-23T14:38:48;3.60;;;3.00;;
7383;SDS011;3733;47.994;8.820;2023-03-23T14:41:40;14.23;;;3.03;;
7383;SDS011;3733;47.994;8.820;2023-03-23T14:44:10;3.90;;;3.17;;
7383;SDS011;3733;47.994;8.820;2023-03-23T14:46:40;5.10;;;2.90;;
7383;SDS011;3733;47.994;8.820;2023-03-23T14:49:11;3.67;;;2.57;;
7383;SDS011;3733;47.994;8.820;2023-03-23T14:51:52;3.53;;;2.70;;
7383;SDS011;3733;47.994;8.820;2023-03-23T14:54:23;6.27;;;3.23;;
7383;SDS011;3733;47.994;8.820;2023-03-23T14:56:52;2.83;;;2.47;;
7383;SDS011;3733;47.994;8.820;2023-03-23T14:59:18;5.77;;;3.10;;
7383;SDS011;3733;47.994;8.820;2023-03-23T15:01:45;5.27;;;3.00;;
7383;SDS011;3733;47.994;8.820;2023-03-23T15:04:23;2.93;;;2.63;;
7383;SDS011;3733;47.994;8.820;2023-03-23T15:06:52;3.97;;;2.63;;
7383;SDS011;3733;47.994;8.820;2023-03-23T15:09:22;3.43;;;2.80;;
7383;SDS011;3733;47.994;8.820;2023-03-23T15:11:56;5.50;;;2.77;;
7383;SDS011;3733;47.994;8.820;2023-03-23T15:14:23;4.70;;;3.13;;
7383;SDS011;3733;47.994;8.820;2023-03-23T15:16:53;4.73;;;2.93;;
7383;SDS011;3733;47.994;8.820;2023-03-23T15:19:23;3.33;;;3.00;;
7383;SDS011;3733;47.994;8.820;2023-03-23T15:22:03;3.63;;;2.80;;
7383;SDS011;3733;47.994;8.820;2023-03-23T15:24:40;3.23;;;2.63;;
7383;SDS011;3733;47.994;8.820;2023-03-23T15:29:56;7.37;;;2.83;;
7383;SDS011;3733;47.994;8.820;2023-03-23T15:32:30;5.17;;;2.80;;
7383;SDS011;3733;47.994;8.820;2023-03-23T15:35:03;3.20;;;2.90;;
7383;SDS011;3733;47.994;8.820;2023-03-23T15:37:37;4.17;;;3.53;;
7383;SDS011;3733;47.994;8.820;2023-03-23T15:40:17;3.70;;;3.10;;
7383;SDS011;3733;47.994;8.820;2023-03-23T15:42:45;5.23;;;2.87;;
7383;SDS011;3733;47.994;8.820;2023-03-23T15:50:15;4.53;;;2.93;;
7383;SDS011;3733;47.994;8.820;2023-03-23T15:52:43;3.40;;;2.90;;
7383;SDS011;3733;47.994;8.820;2023-03-23T15:55:21;4.97;;;3.10;;
7383;SDS011;3733;47.994;8.820;2023-03-23T15:57:52;4.40;;;2.53;;
7383;SDS011;3733;47.994;8.820;2023-03-23T16:00:19;3.20;;;2.70;;
7383;SDS011;3733;47.994;8.820;2023-03-23T16:02:46;9.00;;;3.20;;
7383;SDS011;3733;47.994;8.820;2023-03-23T16:05:16;7.90;;;3.43;;
7383;SDS011;3733;47.994;8.820;2023-03-23T16:07:42;6.60;;;3.20;;
7383;SDS011;3733;47.994;8.820;2023-03-23T16:10:13;3.03;;;2.73;;
7383;SDS011;3733;47.994;8.820;2023-03-23T16:12:44;5.47;;;3.70;;
7383;SDS011;3733;47.994;8.820;2023-03-23T16:15:10;3.67;;;2.87;;
7383;SDS011;3733;47.994;8.820;2023-03-23T16:17:37;3.47;;;2.60;;
7383;SDS011;3733;47.994;8.820;2023-03-23T16:20:10;4.10;;;2.90;;
7383;SDS011;3733;47.994;8.820;2023-03-23T16:22:38;4.97;;;2.47;;
7383;SDS011;3733;47.994;8.820;2023-03-23T16:25:03;3.20;;;2.90;;
7383;SDS011;3733;47.994;8.820;2023-03-23T16:27:30;4.27;;;3.40;;
7383;SDS011;3733;47.994;8.820;2023-03-23T16:29:55;5.13;;;3.30;;
7383;SDS011;3733;47.994;8.820;2023-03-23T16:32:22;3.53;;;3.13;;
7383;SDS011;3733;47.994;8.820;2023-03-23T16:34:48;5.53;;;3.27;;
7383;SDS011;3733;47.994;8.820;2023-03-23T16:37:13;9.80;;;3.33;;
7383;SDS011;3733;47.994;8.820;2023-03-23T16:39:40;4.40;;;2.60;;
7383;SDS011;3733;47.994;8.820;2023-03-23T16:42:06;7.10;;;3.33;;
7383;SDS011;3733;47.994;8.820;2023-03-23T16:44:31;6.57;;;3.03;;
7383;SDS011;3733;47.994;8.820;2023-03-23T16:46:57;4.23;;;3.00;;
7383;SDS011;3733;47.994;8.820;2023-03-23T16:49:22;3.90;;;3.10;;
7383;SDS011;3733;47.994;8.820;2023-03-23T16:51:48;4.50;;;3.30;;
7383;SDS011;3733;47.994;8.820;2023-03-23T16:54:14;4.50;;;3.00;;
7383;SDS011;3733;47.994;8.820;2023-03-23T16:56:39;3.27;;;2.97;;
7383;SDS011;3733;47.994;8.820;2023-03-23T16:59:05;5.30;;;3.00;;
7383;SDS011;3733;47.994;8.820;2023-03-23T17:01:31;5.40;;;3.33;;
7383;SDS011;3733;47.994;8.820;2023-03-23T17:03:56;6.20;;;3.60;;
7383;SDS011;3733;47.994;8.820;2023-03-23T17:06:22;3.60;;;2.80;;
7383;SDS011;3733;47.994;8.820;2023-03-23T17:08:47;7.70;;;3.60;;
7383;SDS011;3733;47.994;8.820;2023-03-23T17:11:13;3.70;;;3.10;;
7383;SDS011;3733;47.994;8.820;2023-03-23T17:13:39;5.70;;;3.60;;
7383;SDS011;3733;47.994;8.820;2023-03-23T17:16:06;4.40;;;3.50;;
7383;SDS011;3733;47.994;8.820;2023-03-23T17:18:32;9.10;;;4.10;;
7383;SDS011;3733;47.994;8.820;2023-03-23T17:20:57;8.53;;;4.50;;
7383;SDS011;3733;47.994;8.820;2023-03-23T17:23:23;5.80;;;4.33;;
7383;SDS011;3733;47.994;8.820;2023-03-23T17:25:48;3.77;;;3.43;;
7383;SDS011;3733;47.994;8.820;2023-03-23T17:28:15;7.67;;;3.67;;
7383;SDS011;3733;47.994;8.820;2023-03-23T17:30:41;5.37;;;3.83;;
7383;SDS011;3733;47.994;8.820;2023-03-23T17:33:08;5.70;;;3.93;;
7383;SDS011;3733;47.994;8.820;2023-03-23T17:35:34;3.97;;;3.30;;
7383;SDS011;3733;47.994;8.820;2023-03-23T17:38:00;5.17;;;3.70;;
7383;SDS011;3733;47.994;8.820;2023-03-23T17:40:26;7.30;;;4.87;;
7383;SDS011;3733;47.994;8.820;2023-03-23T17:42:51;6.60;;;4.00;;
7383;SDS011;3733;47.994;8.820;2023-03-23T17:45:17;9.43;;;3.90;;
7383;SDS011;3733;47.994;8.820;2023-03-23T17:47:43;9.20;;;4.40;;
7383;SDS011;3733;47.994;8.820;2023-03-23T17:50:08;7.87;;;4.20;;
7383;SDS011;3733;47.994;8.820;2023-03-23T17:52:35;7.10;;;4.23;;
7383;SDS011;3733;47.994;8.820;2023-03-23T17:55:01;9.30;;;5.93;;
7383;SDS011;3733;47.994;8.820;2023-03-23T17:57:27;9.60;;;5.73;;